createdAt,value
2018-08-09T00:02:21.370Z,10.93
2018-08-09T00:04:49.610Z,9.83
2018-08-09T00:07:17.933Z,12.00
2018-08-09T00:09:46.283Z,20.07
2018-08-09T00:12:14.591Z,14.73
2018-08-09T00:14:43.028Z,9.60
2018-08-09T00:17:11.303Z,11.67
2018-08-09T00:19:39.555Z,9.40
2018-08-09T00:22:07.876Z,10.20
2018-08-09T00:24:36.154Z,16.30
2018-08-09T00:27:04.499Z,10.33
2018-08-09T00:29:32.840Z,9.70
2018-08-09T00:32:01.193Z,9.57
2018-08-09T00:34:29.526Z,11.20
2018-08-09T00:36:57.893Z,9.87
2018-08-09T00:39:26.165Z,9.70
2018-08-09T00:41:54.410Z,14.33
2018-08-09T00:44:22.807Z,12.60
2018-08-09T00:46:51.057Z,13.57
2018-08-09T00:49:19.402Z,10.50
2018-08-09T00:51:47.680Z,13.63
2018-08-09T00:54:15.887Z,10.43
2018-08-09T00:56:44.160Z,11.20
2018-08-09T00:59:12.529Z,10.73
2018-08-09T01:01:40.784Z,16.87
2018-08-09T01:04:09.183Z,10.40
2018-08-09T01:06:37.498Z,12.13
2018-08-09T01:09:08.473Z,13.93
2018-08-09T01:11:37.717Z,10.20
2018-08-09T01:14:06.142Z,10.43
2018-08-09T01:16:34.392Z,12.00
2018-08-09T01:19:02.792Z,9.40
2018-08-09T01:21:31.244Z,15.03
2018-08-09T01:23:59.831Z,9.50
2018-08-09T01:26:28.160Z,9.90
2018-08-09T01:28:56.505Z,9.43
2018-08-09T01:31:30.867Z,9.30
2018-08-09T01:33:59.181Z,9.87
2018-08-09T01:36:27.520Z,9.70
2018-08-09T01:38:56.114Z,13.03
2018-08-09T01:41:24.717Z,9.47
2018-08-09T01:43:59.987Z,9.43
2018-08-09T01:46:28.556Z,14.07
2018-08-09T01:48:58.512Z,10.83
2018-08-09T01:51:27.654Z,14.40
2018-08-09T01:53:56.021Z,11.67
2018-08-09T01:56:24.373Z,11.60
2018-08-09T01:58:53.288Z,10.67
2018-08-09T02:01:21.778Z,10.27
2018-08-09T02:03:50.076Z,15.00
2018-08-09T02:06:19.251Z,17.43
2018-08-09T02:08:48.076Z,15.07
2018-08-09T02:11:16.320Z,9.77
2018-08-09T02:13:44.731Z,12.77
2018-08-09T02:16:13.006Z,15.87
2018-08-09T02:18:41.317Z,10.23
2018-08-09T02:21:10.115Z,10.23
2018-08-09T02:23:38.435Z,10.43
2018-08-09T02:26:06.698Z,10.50
2018-08-09T02:28:34.953Z,13.37
2018-08-09T02:31:03.265Z,11.20
2018-08-09T02:33:31.687Z,11.30
2018-08-09T02:35:59.949Z,10.60
2018-08-09T02:38:28.247Z,11.33
2018-08-09T02:40:56.540Z,13.73
2018-08-09T02:43:24.820Z,12.00
2018-08-09T02:45:53.107Z,11.73
2018-08-09T02:48:21.449Z,10.90
2018-08-09T02:50:49.702Z,12.37
2018-08-09T02:53:17.947Z,14.87
2018-08-09T02:55:46.246Z,14.00
2018-08-09T02:58:14.505Z,12.23
2018-08-09T03:00:42.825Z,19.50
2018-08-09T03:03:11.222Z,11.40
2018-08-09T03:05:39.489Z,9.90
2018-08-09T03:08:07.840Z,14.60
2018-08-09T03:10:36.130Z,13.27
2018-08-09T03:13:04.446Z,10.30
2018-08-09T03:15:32.762Z,11.40
2018-08-09T03:18:01.079Z,11.53
2018-08-09T03:20:29.412Z,14.30
2018-08-09T03:22:57.655Z,13.70
2018-08-09T03:25:25.955Z,10.70
2018-08-09T03:27:54.280Z,14.63
2018-08-09T03:30:22.553Z,11.60
2018-08-09T03:32:50.809Z,11.07
2018-08-09T03:35:19.172Z,19.00
2018-08-09T03:37:47.478Z,11.10
2018-08-09T03:40:15.761Z,16.90
2018-08-09T03:42:44.006Z,16.43
2018-08-09T03:45:12.339Z,12.30
2018-08-09T03:47:40.663Z,13.43
2018-08-09T03:50:08.926Z,13.33
2018-08-09T03:52:37.299Z,13.53
2018-08-09T03:55:05.648Z,19.73
2018-08-09T03:57:33.998Z,17.43
2018-08-09T04:00:02.317Z,13.80
2018-08-09T04:02:30.576Z,15.80
2018-08-09T04:04:58.888Z,12.33
2018-08-09T04:07:27.187Z,10.47
2018-08-09T04:09:55.480Z,15.07
2018-08-09T04:12:23.811Z,12.30
2018-08-09T04:14:52.046Z,14.47
2018-08-09T04:17:22.080Z,12.80
2018-08-09T04:19:51.578Z,12.23
2018-08-09T04:22:21.015Z,11.30
2018-08-09T04:24:49.291Z,11.10
2018-08-09T04:27:17.619Z,11.37
2018-08-09T04:29:45.928Z,10.73
2018-08-09T04:32:14.311Z,9.90
2018-08-09T04:34:42.642Z,11.90
2018-08-09T04:37:10.922Z,16.17
2018-08-09T04:39:39.221Z,14.73
2018-08-09T04:42:07.588Z,12.10
2018-08-09T04:44:36.111Z,15.63
2018-08-09T04:47:04.393Z,21.33
2018-08-09T04:49:32.677Z,12.70
2018-08-09T04:52:00.959Z,13.23
2018-08-09T04:54:29.275Z,14.40
2018-08-09T04:56:57.912Z,11.57
2018-08-09T04:59:26.154Z,11.13
2018-08-09T05:01:54.522Z,10.90
2018-08-09T05:04:22.858Z,10.50
2018-08-09T05:06:51.125Z,11.10
2018-08-09T05:09:19.493Z,10.97
2018-08-09T05:11:47.760Z,11.53
2018-08-09T05:14:16.044Z,12.27
2018-08-09T05:16:44.285Z,12.50
2018-08-09T05:19:12.616Z,11.20
2018-08-09T05:21:40.975Z,14.83
2018-08-09T05:24:09.327Z,12.83
2018-08-09T05:26:37.639Z,14.80
2018-08-09T05:29:06.118Z,11.27
2018-08-09T05:31:34.413Z,11.53
2018-08-09T05:34:09.159Z,10.80
2018-08-09T05:36:37.451Z,13.50
2018-08-09T05:39:08.198Z,14.13
2018-08-09T05:41:36.500Z,11.37
2018-08-09T05:44:04.930Z,22.00
2018-08-09T05:46:33.255Z,11.03
2018-08-09T05:49:01.488Z,19.77
2018-08-09T05:51:29.748Z,11.07
2018-08-09T05:53:58.024Z,11.40
2018-08-09T05:56:26.334Z,15.73
2018-08-09T05:58:54.630Z,11.03
2018-08-09T06:01:25.859Z,11.83
2018-08-09T06:03:54.573Z,13.77
2018-08-09T06:06:23.182Z,11.40
2018-08-09T06:08:51.524Z,12.63
2018-08-09T06:11:19.790Z,11.50
2018-08-09T06:13:48.244Z,11.23
2018-08-09T06:16:16.495Z,12.00
2018-08-09T06:18:44.773Z,11.00
2018-08-09T06:21:13.046Z,12.83
2018-08-09T06:23:41.413Z,11.50
2018-08-09T06:26:09.832Z,14.33
2018-08-09T06:28:38.083Z,13.53
2018-08-09T06:31:06.365Z,14.60
2018-08-09T06:33:34.644Z,16.13
2018-08-09T06:36:02.998Z,14.53
2018-08-09T06:38:31.366Z,15.03
2018-08-09T06:40:59.688Z,20.83
2018-08-09T06:43:28.033Z,12.43
2018-08-09T06:45:56.303Z,13.67
2018-08-09T06:48:24.592Z,15.80
2018-08-09T06:50:53.014Z,12.40
2018-08-09T06:53:22.310Z,11.70
2018-08-09T06:55:50.640Z,10.87
2018-08-09T06:58:19.051Z,12.43
2018-08-09T07:00:47.415Z,17.67
2018-08-09T07:03:15.746Z,16.73
2018-08-09T07:05:44.145Z,15.17
2018-08-09T07:08:12.433Z,11.50
2018-08-09T07:10:40.728Z,15.90
2018-08-09T07:13:09.062Z,13.10
2018-08-09T07:15:37.401Z,13.13
2018-08-09T07:18:05.978Z,13.73
2018-08-09T07:20:34.272Z,19.27
2018-08-09T07:23:02.591Z,16.37
2018-08-09T07:25:30.835Z,13.63
2018-08-09T07:27:59.190Z,11.83
2018-08-09T07:30:27.517Z,14.90
2018-08-09T07:32:55.847Z,14.27
2018-08-09T07:35:24.223Z,13.80
2018-08-09T07:37:52.644Z,16.17
2018-08-09T07:40:20.978Z,15.40
2018-08-09T07:42:49.242Z,19.03
2018-08-09T07:45:17.531Z,17.33
2018-08-09T07:47:45.968Z,12.67
2018-08-09T07:50:14.309Z,11.80
2018-08-09T07:52:42.593Z,13.47
2018-08-09T07:55:11.309Z,12.60
2018-08-09T07:57:40.048Z,18.60
2018-08-09T08:00:10.511Z,12.67
2018-08-09T08:02:38.878Z,15.47
2018-08-09T08:05:07.404Z,16.43
2018-08-09T08:07:35.750Z,19.97
2018-08-09T08:10:04.915Z,14.83
2018-08-09T08:12:33.288Z,21.03
2018-08-09T08:15:01.765Z,21.20
2018-08-09T08:17:30.002Z,12.63
2018-08-09T08:19:58.344Z,16.83
2018-08-09T08:22:26.620Z,14.53
2018-08-09T08:24:54.886Z,15.27
2018-08-09T08:27:23.456Z,18.57
2018-08-09T08:29:51.738Z,15.80
2018-08-09T08:32:20.039Z,13.13
2018-08-09T08:34:48.268Z,17.50
2018-08-09T08:37:16.619Z,14.43
2018-08-09T08:39:44.932Z,21.23
2018-08-09T08:42:13.312Z,14.90
2018-08-09T08:44:41.592Z,13.87
2018-08-09T08:47:09.995Z,17.07
2018-08-09T08:49:38.313Z,14.30
2018-08-09T08:52:06.668Z,19.80
2018-08-09T08:54:35.140Z,12.60
2018-08-09T08:57:03.602Z,21.75
2018-08-09T08:59:31.960Z,12.23
2018-08-09T09:02:00.521Z,16.53
2018-08-09T09:04:29.129Z,14.13
2018-08-09T09:06:57.398Z,13.15
2018-08-09T09:09:25.670Z,21.33
2018-08-09T09:11:53.984Z,15.20
2018-08-09T09:14:22.288Z,12.70
2018-08-09T09:16:50.660Z,17.07
2018-08-09T09:19:19.124Z,13.15
2018-08-09T09:21:47.425Z,15.10
2018-08-09T09:24:15.869Z,22.05
2018-08-09T09:26:44.195Z,11.20
2018-08-09T09:29:12.475Z,13.50
2018-08-09T09:31:41.005Z,18.02
2018-08-09T09:34:09.510Z,11.75
2018-08-09T09:36:38.188Z,16.07
2018-08-09T09:39:08.414Z,15.45
2018-08-09T09:41:36.877Z,16.87
2018-08-09T09:44:05.876Z,13.72
2018-08-09T09:46:34.192Z,17.50
2018-08-09T09:49:02.435Z,12.82
2018-08-09T09:51:30.793Z,14.03
2018-08-09T09:53:59.603Z,11.73
2018-08-09T09:56:27.958Z,15.08
2018-08-09T09:58:56.275Z,13.38
2018-08-09T10:01:29.938Z,19.87
2018-08-09T10:03:58.351Z,16.95
2018-08-09T10:06:26.625Z,17.75
2018-08-09T10:08:55.015Z,13.65
2018-08-09T10:11:23.997Z,12.18
2018-08-09T10:13:52.280Z,11.03
2018-08-09T10:16:20.575Z,14.13
2018-08-09T10:18:49.193Z,11.80
2018-08-09T10:21:17.557Z,15.13
2018-08-09T10:23:45.909Z,11.38
2018-08-09T10:26:14.177Z,11.45
2018-08-09T10:28:42.539Z,11.70
2018-08-09T10:31:10.942Z,13.88
2018-08-09T10:33:39.372Z,10.55
2018-08-09T10:36:07.759Z,16.23
2018-08-09T10:38:36.009Z,16.87
2018-08-09T10:41:04.338Z,21.52
2018-08-09T10:43:32.674Z,11.90
2018-08-09T10:46:00.960Z,13.43
2018-08-09T10:48:29.386Z,13.65
2018-08-09T10:50:57.692Z,11.18
2018-08-09T10:53:26.013Z,11.68
2018-08-09T10:55:54.342Z,17.15
2018-08-09T10:58:22.666Z,12.37
2018-08-09T11:00:52.905Z,15.18
2018-08-09T11:03:21.228Z,14.98
2018-08-09T11:05:50.208Z,14.63
2018-08-09T11:08:18.560Z,16.37
2018-08-09T11:10:47.446Z,11.50
2018-08-09T11:13:16.152Z,14.38
2018-08-09T11:15:44.671Z,21.25
2018-08-09T11:18:13.569Z,15.38
2018-08-09T11:20:42.359Z,10.82
2018-08-09T11:23:10.680Z,12.15
2018-08-09T11:25:39.068Z,12.05
2018-08-09T11:28:07.356Z,9.98
2018-08-09T11:30:35.689Z,9.90
2018-08-09T11:33:05.974Z,9.60
2018-08-09T11:35:34.342Z,9.48
2018-08-09T11:38:02.619Z,14.75
2018-08-09T11:40:30.997Z,14.55
2018-08-09T11:42:59.408Z,12.78
2018-08-09T11:45:27.749Z,8.33
2018-08-09T11:47:56.013Z,7.92
2018-08-09T11:50:24.280Z,12.20
2018-08-09T11:52:52.834Z,21.80
2018-08-09T11:55:21.222Z,23.20
2018-08-09T11:57:53.457Z,25.27
2018-08-09T12:00:21.814Z,21.82
2018-08-09T12:02:50.208Z,24.92
2018-08-09T12:05:18.575Z,31.55
2018-08-09T12:07:46.975Z,26.68
2018-08-09T12:10:15.449Z,21.02
2018-08-09T12:12:43.720Z,13.62
2018-08-09T12:15:12.008Z,11.85
2018-08-09T12:17:40.638Z,11.83
2018-08-09T12:20:18.571Z,9.58
2018-08-09T12:22:46.881Z,13.08
2018-08-09T12:25:15.250Z,11.45
2018-08-09T12:27:43.562Z,12.60
2018-08-09T12:30:14.698Z,11.03
2018-08-09T12:32:43.460Z,13.05
2018-08-09T12:35:12.543Z,9.08
2018-08-09T12:37:41.759Z,9.90
2018-08-09T12:40:10.852Z,7.70
2018-08-09T12:42:39.822Z,12.63
2018-08-09T12:45:10.744Z,7.65
2018-08-09T12:47:39.536Z,7.22
2018-08-09T12:50:10.488Z,9.77
2018-08-09T12:52:39.448Z,7.25
2018-08-09T12:55:08.250Z,10.13
2018-08-09T12:57:36.501Z,9.53
2018-08-09T13:00:06.658Z,8.93
2018-08-09T13:02:34.953Z,6.00
2018-08-09T13:05:03.353Z,6.20
2018-08-09T13:07:31.678Z,11.03
2018-08-09T13:10:00.008Z,6.17
2018-08-09T13:12:28.453Z,8.55
2018-08-09T13:14:56.801Z,6.30
2018-08-09T13:17:25.102Z,5.83
2018-08-09T13:19:53.502Z,5.20
2018-08-09T13:22:21.945Z,5.95
2018-08-09T13:24:50.268Z,5.72
2018-08-09T13:27:18.622Z,7.17
2018-08-09T13:29:47.011Z,10.03
2018-08-09T13:32:15.382Z,4.90
2018-08-09T13:34:43.725Z,5.65
2018-08-09T13:37:12.097Z,5.45
2018-08-09T13:39:41.054Z,9.00
2018-08-09T13:42:09.387Z,8.65
2018-08-09T13:44:37.688Z,5.78
2018-08-09T13:47:06.105Z,10.13
2018-08-09T13:49:34.564Z,8.80
2018-08-09T13:52:02.949Z,7.47
2018-08-09T13:54:31.301Z,5.90
2018-08-09T13:56:59.762Z,7.65
2018-08-09T13:59:28.159Z,5.70
2018-08-09T14:01:56.498Z,5.15
2018-08-09T14:04:24.804Z,6.10
2018-08-09T14:06:53.256Z,7.15
2018-08-09T14:09:21.817Z,5.40
2018-08-09T14:11:50.168Z,7.83
2018-08-09T14:14:18.491Z,7.75
2018-08-09T14:16:46.865Z,5.60
2018-08-09T14:19:15.290Z,6.17
2018-08-09T14:21:43.534Z,6.10
2018-08-09T14:24:11.902Z,6.78
2018-08-09T14:26:40.292Z,6.78
2018-08-09T14:29:09.162Z,6.50
2018-08-09T14:31:37.822Z,7.05
2018-08-09T14:34:06.339Z,6.15
2018-08-09T14:36:34.760Z,12.05
2018-08-09T14:39:03.203Z,8.85
2018-08-09T14:41:31.549Z,8.63
2018-08-09T14:43:59.912Z,6.72
2018-08-09T14:46:28.256Z,5.92
2018-08-09T14:48:56.487Z,7.58
2018-08-09T14:51:24.756Z,8.35
2018-08-09T14:53:53.088Z,7.28
2018-08-09T14:56:21.415Z,7.60
2018-08-09T14:58:49.859Z,9.50
2018-08-09T15:01:18.365Z,7.30
2018-08-09T15:03:46.697Z,7.65
2018-08-09T15:06:15.015Z,7.75
2018-08-09T15:08:43.321Z,9.25
2018-08-09T15:11:11.640Z,10.58
2018-08-09T15:13:39.898Z,9.33
2018-08-09T15:16:08.208Z,7.08
2018-08-09T15:18:36.601Z,8.03
2018-08-09T15:21:04.928Z,8.30
2018-08-09T15:23:33.228Z,7.83
2018-08-09T15:26:01.583Z,11.10
2018-08-09T15:28:29.874Z,6.97
2018-08-09T15:30:58.319Z,8.50
2018-08-09T15:33:26.573Z,8.13
2018-08-09T15:35:55.906Z,6.35
2018-08-09T15:38:24.570Z,6.45
2018-08-09T15:40:52.821Z,6.90
2018-08-09T15:43:21.221Z,7.20
2018-08-09T15:45:49.501Z,6.50
2018-08-09T15:48:17.764Z,9.30
2018-08-09T15:50:46.034Z,6.37
2018-08-09T15:53:14.302Z,5.30
2018-08-09T15:55:42.669Z,11.08
2018-08-09T15:58:11.010Z,5.58
2018-08-09T16:00:39.386Z,8.75
2018-08-09T16:03:07.892Z,7.62
2018-08-09T16:05:36.250Z,5.03
2018-08-09T16:08:04.555Z,6.20
2018-08-09T16:10:32.973Z,9.33
2018-08-09T16:13:01.331Z,7.10
2018-08-09T16:15:29.645Z,6.90
2018-08-09T16:17:58.027Z,8.13
2018-08-09T16:20:26.306Z,5.78
2018-08-09T16:22:54.653Z,9.90
2018-08-09T16:25:23.095Z,9.95
2018-08-09T16:27:51.531Z,5.80
2018-08-09T16:30:23.095Z,6.92
2018-08-09T16:32:51.360Z,7.95
2018-08-09T16:35:19.718Z,11.45
2018-08-09T16:37:48.332Z,6.58
2018-08-09T16:40:19.112Z,8.05
2018-08-09T16:42:47.438Z,6.37
2018-08-09T16:45:16.908Z,6.22
2018-08-09T16:47:45.420Z,9.87
2018-08-09T16:50:17.398Z,5.92
2018-08-09T16:52:46.887Z,5.97
2018-08-09T16:55:15.937Z,8.00
2018-08-09T16:57:44.333Z,5.53
2018-08-09T17:00:15.460Z,7.20
2018-08-09T17:02:43.831Z,6.33
2018-08-09T17:05:17.049Z,8.10
2018-08-09T17:07:45.544Z,6.57
2018-08-09T17:10:19.854Z,9.37
2018-08-09T17:12:48.224Z,9.70
2018-08-09T17:15:19.187Z,9.20
2018-08-09T17:17:47.466Z,7.33
2018-08-09T17:20:20.738Z,7.87
2018-08-09T17:22:49.106Z,7.07
2018-08-09T17:25:17.572Z,8.93
2018-08-09T17:27:46.761Z,6.47
2018-08-09T17:30:16.166Z,10.00
2018-08-09T17:32:44.509Z,5.83
2018-08-09T17:35:13.760Z,8.37
2018-08-09T17:37:42.203Z,4.90
2018-08-09T17:40:16.434Z,5.40
2018-08-09T17:42:45.158Z,5.23
2018-08-09T17:45:13.997Z,5.10
2018-08-09T17:47:42.553Z,5.47
2018-08-09T17:50:10.877Z,5.80
2018-08-09T17:52:39.218Z,5.70
2018-08-09T17:55:10.113Z,5.60
2018-08-09T17:57:38.682Z,6.00
2018-08-09T18:00:09.344Z,6.23
2018-08-09T18:02:38.356Z,5.17
2018-08-09T18:05:07.883Z,6.40
2018-08-09T18:07:36.459Z,5.43
2018-08-09T18:10:07.441Z,6.00
2018-08-09T18:12:35.856Z,5.23
2018-08-09T18:15:04.590Z,5.03
2018-08-09T18:17:32.881Z,8.43
2018-08-09T18:20:01.198Z,5.13
2018-08-09T18:22:29.497Z,4.97
2018-08-09T18:24:58.180Z,5.60
2018-08-09T18:27:26.482Z,5.33
2018-08-09T18:29:54.780Z,7.73
2018-08-09T18:32:23.055Z,6.33
2018-08-09T18:34:51.371Z,5.77
2018-08-09T18:37:19.707Z,5.40
2018-08-09T18:39:48.097Z,4.97
2018-08-09T18:42:16.458Z,5.77
2018-08-09T18:44:44.749Z,5.63
2018-08-09T18:47:14.507Z,5.53
2018-08-09T18:49:42.912Z,6.03
2018-08-09T18:52:11.167Z,5.40
2018-08-09T18:54:39.578Z,5.53
2018-08-09T18:57:08.005Z,5.40
2018-08-09T18:59:36.270Z,5.10
2018-08-09T19:02:04.658Z,5.87
2018-08-09T19:04:33.289Z,6.60
2018-08-09T19:07:01.707Z,5.30
2018-08-09T19:09:29.945Z,4.57
2018-08-09T19:12:00.563Z,5.20
2018-08-09T19:14:29.550Z,5.53
2018-08-09T19:16:58.132Z,6.73
2018-08-09T19:19:26.725Z,5.20
2018-08-09T19:21:55.211Z,5.30
2018-08-09T19:24:24.038Z,5.90
2018-08-09T19:26:52.633Z,5.90
2018-08-09T19:29:20.919Z,5.57
2018-08-09T19:31:49.210Z,5.73
2018-08-09T19:34:17.695Z,5.77
2018-08-09T19:36:46.483Z,6.00
2018-08-09T19:39:15.480Z,6.10
2018-08-09T19:41:44.784Z,6.67
2018-08-09T19:44:14.075Z,5.27
2018-08-09T19:46:42.418Z,5.53
2018-08-09T19:49:10.803Z,6.33
2018-08-09T19:51:39.121Z,5.80
2018-08-09T19:54:08.437Z,5.53
2018-08-09T19:56:36.763Z,5.07
2018-08-09T19:59:05.130Z,5.23
2018-08-09T20:01:33.523Z,5.60
2018-08-09T20:04:01.807Z,8.33
2018-08-09T20:06:30.178Z,5.77
2018-08-09T20:09:07.360Z,5.87
2018-08-09T20:11:35.782Z,6.00
2018-08-09T20:14:04.726Z,6.20
2018-08-09T20:16:33.268Z,6.37
2018-08-09T20:19:01.938Z,6.57
2018-08-09T20:21:30.207Z,6.27
2018-08-09T20:23:58.484Z,5.67
2018-08-09T20:26:26.847Z,6.97
2018-08-09T20:28:55.200Z,6.30
2018-08-09T20:31:23.502Z,6.07
2018-08-09T20:33:51.965Z,5.63
2018-08-09T20:36:20.262Z,10.23
2018-08-09T20:38:48.641Z,6.27
2018-08-09T20:41:17.021Z,6.47
2018-08-09T20:43:45.243Z,6.67
2018-08-09T20:46:13.489Z,8.07
2018-08-09T20:48:41.890Z,5.43
2018-08-09T20:51:10.289Z,6.10
2018-08-09T20:53:38.628Z,6.50
2018-08-09T20:56:07.025Z,6.63
2018-08-09T20:58:35.402Z,7.30
2018-08-09T21:01:03.795Z,6.97
2018-08-09T21:03:32.061Z,6.33
2018-08-09T21:06:00.369Z,6.53
2018-08-09T21:08:28.650Z,6.00
2018-08-09T21:10:56.975Z,5.20
2018-08-09T21:13:25.340Z,6.60
2018-08-09T21:15:53.621Z,6.20
2018-08-09T21:18:22.014Z,6.50
2018-08-09T21:20:50.332Z,5.63
2018-08-09T21:23:18.664Z,6.43
2018-08-09T21:25:47.014Z,6.37
2018-08-09T21:28:15.372Z,5.50
2018-08-09T21:30:43.654Z,6.13
2018-08-09T21:33:11.967Z,6.00
2018-08-09T21:35:40.251Z,5.20
2018-08-09T21:38:08.748Z,5.43
2018-08-09T21:40:37.008Z,5.80
2018-08-09T21:43:05.292Z,5.20
2018-08-09T21:45:33.723Z,5.83
2018-08-09T21:48:01.970Z,5.43
2018-08-09T21:50:30.310Z,6.40
2018-08-09T21:53:05.762Z,6.27
2018-08-09T21:55:34.036Z,5.63
2018-08-09T21:58:02.333Z,5.80
2018-08-09T22:00:57.293Z,6.67
2018-08-09T22:03:28.524Z,6.50
2018-08-09T22:06:02.369Z,6.43
2018-08-09T22:08:35.999Z,6.60
2018-08-09T22:11:10.189Z,5.90
2018-08-09T22:13:43.923Z,5.50
2018-08-09T22:16:17.681Z,6.73
2018-08-09T22:18:51.366Z,7.73
2018-08-09T22:21:25.150Z,6.70
2018-08-09T22:23:53.462Z,6.70
2018-08-09T22:26:21.742Z,5.80
2018-08-09T22:28:50.231Z,5.70
2018-08-09T22:31:18.591Z,8.43
2018-08-09T22:33:47.125Z,7.57
2018-08-09T22:36:15.545Z,6.70
2018-08-09T22:38:43.892Z,6.90
2018-08-09T22:41:12.149Z,6.20
2018-08-09T22:43:40.577Z,6.47
2018-08-09T22:46:08.824Z,6.90
2018-08-09T22:48:37.124Z,7.10
2018-08-09T22:51:05.494Z,6.60
2018-08-09T22:53:33.830Z,8.00
2018-08-09T22:56:02.240Z,6.93
2018-08-09T22:58:30.616Z,5.80
2018-08-09T23:00:58.960Z,6.50
2018-08-09T23:03:27.347Z,6.30
2018-08-09T23:05:55.719Z,6.00
2018-08-09T23:08:24.026Z,6.13
2018-08-09T23:10:52.300Z,5.93
2018-08-09T23:13:20.634Z,5.70
2018-08-09T23:15:48.957Z,6.47
2018-08-09T23:18:17.377Z,5.63
2018-08-09T23:20:45.689Z,5.70
2018-08-09T23:23:14.013Z,6.23
2018-08-09T23:25:42.368Z,6.27
2018-08-09T23:28:10.739Z,6.13
2018-08-09T23:30:39.276Z,6.13
2018-08-09T23:33:07.559Z,7.17
2018-08-09T23:35:35.853Z,6.33
2018-08-09T23:38:04.305Z,6.50
2018-08-09T23:40:32.612Z,5.97
2018-08-09T23:43:00.887Z,6.30
2018-08-09T23:45:29.206Z,5.90
2018-08-09T23:47:57.518Z,6.37
2018-08-09T23:50:25.839Z,5.33
2018-08-09T23:52:54.123Z,6.27
2018-08-09T23:55:22.406Z,6.13
2018-08-09T23:57:50.699Z,5.77
